createdAt,value
2023-05-21T00:02:19.926Z,12.37
2023-05-21T00:04:46.525Z,12.33
2023-05-21T00:07:13.421Z,12.35
2023-05-21T00:09:39.779Z,12.34
2023-05-21T00:12:06.563Z,12.31
2023-05-21T00:14:33.022Z,12.27
2023-05-21T00:16:59.362Z,12.25
2023-05-21T00:19:27.138Z,12.25
2023-05-21T00:21:54.815Z,12.26
2023-05-21T00:24:21.402Z,12.23
2023-05-21T00:26:47.822Z,12.18
2023-05-21T00:29:14.232Z,12.09
2023-05-21T00:31:40.978Z,12.03
2023-05-21T00:34:07.400Z,11.98
2023-05-21T00:36:34.783Z,12.00
2023-05-21T00:39:04.288Z,11.97
2023-05-21T00:41:30.680Z,11.95
2023-05-21T00:43:57.278Z,11.87
2023-05-21T00:46:23.687Z,11.85
2023-05-21T00:48:50.121Z,11.81
2023-05-21T00:51:16.859Z,11.82
2023-05-21T00:53:44.337Z,11.81
2023-05-21T00:56:10.749Z,11.76
2023-05-21T00:58:38.544Z,11.71
2023-05-21T01:01:06.946Z,11.64
2023-05-21T01:03:38.389Z,11.61
2023-05-21T01:06:05.653Z,11.55
2023-05-21T01:08:32.249Z,11.61
2023-05-21T01:10:58.627Z,11.61
2023-05-21T01:13:25.143Z,11.59
2023-05-21T01:15:52.020Z,11.55
2023-05-21T01:18:20.158Z,11.51
2023-05-21T01:20:50.277Z,11.50
2023-05-21T01:23:17.159Z,11.48
2023-05-21T01:25:43.874Z,11.46
2023-05-21T01:28:10.263Z,11.47
2023-05-21T01:30:36.713Z,11.44
2023-05-21T01:33:23.505Z,11.39
2023-05-21T01:36:08.908Z,11.41
2023-05-21T01:38:41.901Z,11.43
2023-05-21T01:41:10.267Z,11.39
2023-05-21T01:43:38.751Z,11.35
2023-05-21T01:46:05.640Z,11.26
2023-05-21T01:48:32.086Z,11.18
2023-05-21T01:50:59.862Z,11.21
2023-05-21T01:53:26.342Z,11.22
2023-05-21T01:55:54.532Z,11.19
2023-05-21T01:58:21.583Z,11.17
2023-05-21T02:00:48.045Z,11.13
2023-05-21T02:03:17.334Z,11.11
2023-05-21T02:05:43.805Z,11.14
2023-05-21T02:08:10.447Z,11.15
2023-05-21T02:10:36.964Z,11.14
2023-05-21T02:13:03.577Z,11.14
2023-05-21T02:15:30.379Z,11.14
2023-05-21T02:17:58.403Z,11.11
2023-05-21T02:20:25.049Z,11.10
2023-05-21T02:22:51.547Z,11.09
2023-05-21T02:25:18.460Z,11.08
2023-05-21T02:27:46.586Z,11.06
2023-05-21T02:30:14.094Z,11.03
2023-05-21T02:32:42.807Z,11.01
2023-05-21T02:35:10.112Z,10.91
2023-05-21T02:37:36.597Z,10.99
2023-05-21T02:40:04.284Z,10.99
2023-05-21T02:42:30.766Z,10.98
2023-05-21T02:44:57.174Z,10.94
2023-05-21T02:47:23.859Z,10.89
2023-05-21T02:49:50.689Z,10.88
2023-05-21T02:52:20.096Z,10.90
2023-05-21T02:54:46.923Z,10.84
2023-05-21T02:57:13.432Z,10.82
2023-05-21T02:59:39.941Z,10.88
2023-05-21T03:02:06.760Z,10.92
2023-05-21T03:04:33.203Z,10.95
2023-05-21T03:07:02.201Z,10.91
2023-05-21T03:09:28.644Z,10.84
2023-05-21T03:11:55.011Z,10.84
2023-05-21T03:14:21.885Z,10.88
2023-05-21T03:16:49.136Z,10.84
2023-05-21T03:19:15.685Z,10.83
2023-05-21T03:21:43.133Z,10.82
2023-05-21T03:24:09.693Z,10.87
2023-05-21T03:26:36.066Z,10.90
2023-05-21T03:29:02.487Z,10.91
2023-05-21T03:31:28.867Z,10.93
2023-05-21T03:33:55.417Z,10.94
2023-05-21T03:36:21.852Z,10.90
2023-05-21T03:38:48.214Z,10.95
2023-05-21T03:41:14.651Z,10.98
2023-05-21T03:43:41.307Z,11.00
2023-05-21T03:46:07.702Z,11.03
2023-05-21T03:48:45.235Z,11.07
2023-05-21T03:51:14.043Z,11.09
2023-05-21T03:53:40.434Z,11.14
2023-05-21T03:56:10.544Z,11.22
2023-05-21T03:58:36.979Z,11.31
2023-05-21T04:01:04.679Z,11.37
2023-05-21T04:03:33.145Z,11.45
2023-05-21T04:05:59.725Z,11.52
2023-05-21T04:08:26.781Z,11.58
2023-05-21T04:10:53.148Z,11.64
2023-05-21T04:13:19.583Z,11.77
2023-05-21T04:15:46.685Z,11.85
2023-05-21T04:18:13.773Z,11.93
2023-05-21T04:20:40.181Z,12.02
2023-05-21T04:23:06.541Z,12.05
2023-05-21T04:25:34.176Z,12.17
2023-05-21T04:28:00.958Z,12.26
2023-05-21T04:30:27.593Z,12.36
2023-05-21T04:32:54.785Z,12.45
2023-05-21T04:35:21.419Z,12.54
2023-05-21T04:37:47.812Z,12.65
2023-05-21T04:40:18.607Z,12.77
2023-05-21T04:42:46.684Z,12.83
2023-05-21T04:45:13.182Z,12.92
2023-05-21T04:47:39.628Z,13.01
2023-05-21T04:50:06.522Z,13.14
2023-05-21T04:52:34.762Z,13.27
2023-05-21T04:55:01.334Z,13.42
2023-05-21T04:57:28.281Z,13.53
2023-05-21T04:59:54.900Z,13.63
2023-05-21T05:02:21.343Z,13.70
2023-05-21T05:04:47.780Z,13.77
2023-05-21T05:07:15.000Z,13.83
2023-05-21T05:09:41.398Z,13.93
2023-05-21T05:12:07.820Z,14.03
2023-05-21T05:14:34.188Z,14.12
2023-05-21T05:17:00.888Z,14.18
2023-05-21T05:19:28.718Z,14.23
2023-05-21T05:21:55.663Z,14.31
2023-05-21T05:24:22.063Z,14.37
2023-05-21T05:26:48.480Z,14.45
2023-05-21T05:29:14.868Z,14.55
2023-05-21T05:31:41.285Z,14.64
2023-05-21T05:34:07.700Z,14.71
2023-05-21T05:36:34.100Z,14.79
2023-05-21T05:39:00.536Z,14.91
2023-05-21T05:41:27.161Z,15.03
2023-05-21T05:43:53.556Z,15.10
2023-05-21T05:46:19.996Z,15.19
2023-05-21T05:48:46.500Z,15.29
2023-05-21T05:51:12.909Z,15.37
2023-05-21T05:53:39.508Z,15.46
2023-05-21T05:56:06.146Z,15.56
2023-05-21T05:58:32.645Z,15.68
2023-05-21T06:00:59.042Z,15.77
2023-05-21T06:03:25.805Z,15.87
2023-05-21T06:05:52.478Z,15.97
2023-05-21T06:08:18.891Z,16.08
2023-05-21T06:10:45.508Z,16.22
2023-05-21T06:13:11.988Z,16.37
2023-05-21T06:15:39.368Z,16.53
2023-05-21T06:18:05.935Z,16.64
2023-05-21T06:20:32.440Z,16.80
2023-05-21T06:22:59.257Z,17.13
2023-05-21T06:25:25.794Z,17.44
2023-05-21T06:27:52.367Z,17.33
2023-05-21T06:30:18.759Z,17.51
2023-05-21T06:32:45.343Z,17.62
2023-05-21T06:35:11.959Z,17.99
2023-05-21T06:37:38.768Z,18.20
2023-05-21T06:40:05.606Z,18.16
2023-05-21T06:42:32.023Z,18.02
2023-05-21T06:44:58.884Z,18.40
2023-05-21T06:47:25.377Z,18.16
2023-05-21T06:49:51.824Z,18.40
2023-05-21T06:52:18.238Z,18.41
2023-05-21T06:54:44.671Z,18.42
2023-05-21T06:57:11.065Z,18.48
2023-05-21T06:59:37.471Z,18.68
2023-05-21T07:02:04.746Z,19.28
2023-05-21T07:04:31.582Z,19.30
2023-05-21T07:06:58.041Z,19.17
2023-05-21T07:09:24.445Z,19.59
2023-05-21T07:11:52.977Z,19.72
2023-05-21T07:14:19.369Z,19.60
2023-05-21T07:16:45.951Z,19.83
2023-05-21T07:19:12.380Z,20.45
2023-05-21T07:21:38.793Z,20.25
2023-05-21T07:24:05.431Z,20.36
2023-05-21T07:26:31.851Z,20.77
2023-05-21T07:28:58.244Z,20.81
2023-05-21T07:31:26.058Z,20.74
2023-05-21T07:33:53.641Z,21.00
2023-05-21T07:36:20.070Z,21.18
2023-05-21T07:38:46.549Z,21.19
2023-05-21T07:41:13.019Z,21.22
2023-05-21T07:43:39.440Z,21.50
2023-05-21T07:46:06.411Z,21.24
2023-05-21T07:48:35.286Z,21.11
2023-05-21T07:51:01.992Z,21.17
2023-05-21T07:53:32.295Z,21.56
2023-05-21T07:55:59.561Z,21.69
2023-05-21T07:58:25.929Z,21.80
2023-05-21T08:00:52.758Z,22.08
2023-05-21T08:03:19.648Z,21.98
2023-05-21T08:05:50.781Z,22.05
2023-05-21T08:08:20.496Z,22.02
2023-05-21T08:10:47.781Z,22.06
2023-05-21T08:13:15.142Z,22.35
2023-05-21T08:15:41.618Z,22.21
2023-05-21T08:18:10.000Z,22.30
2023-05-21T08:20:37.843Z,22.60
2023-05-21T08:23:05.769Z,22.31
2023-05-21T08:25:32.242Z,22.16
2023-05-21T08:27:58.629Z,22.57
2023-05-21T08:30:25.020Z,22.42
2023-05-21T08:32:51.408Z,22.70
2023-05-21T08:35:17.839Z,22.81
2023-05-21T08:37:44.420Z,23.32
2023-05-21T08:40:12.197Z,23.49
2023-05-21T08:42:40.483Z,23.65
2023-05-21T08:45:07.175Z,23.39
2023-05-21T08:47:34.863Z,23.24
2023-05-21T08:50:04.413Z,22.99
2023-05-21T08:52:31.752Z,23.48
2023-05-21T08:55:00.106Z,23.67
2023-05-21T08:57:26.934Z,23.73
2023-05-21T08:59:55.040Z,23.54
2023-05-21T09:02:21.452Z,23.55
2023-05-21T09:04:49.289Z,23.76
2023-05-21T09:07:15.935Z,23.23
2023-05-21T09:09:49.552Z,22.62
2023-05-21T09:12:15.955Z,23.27
2023-05-21T09:14:49.826Z,23.65
2023-05-21T09:17:16.444Z,23.96
2023-05-21T09:20:01.976Z,24.21
2023-05-21T09:22:28.518Z,24.46
2023-05-21T09:24:59.154Z,24.87
2023-05-21T09:27:26.524Z,24.91
2023-05-21T09:29:59.925Z,25.27
2023-05-21T09:32:33.622Z,25.02
2023-05-21T09:35:06.730Z,25.21
2023-05-21T09:37:37.655Z,25.47
2023-05-21T09:43:15.965Z,24.87
2023-05-21T09:45:52.723Z,24.88
2023-05-21T09:48:40.752Z,24.85
2023-05-21T09:51:16.671Z,24.65
2023-05-21T09:53:48.757Z,24.80
2023-05-21T09:56:17.560Z,24.94
2023-05-21T09:58:46.285Z,23.83
2023-05-21T10:01:12.680Z,24.32
2023-05-21T10:03:40.095Z,24.70
2023-05-21T10:06:08.041Z,24.50
2023-05-21T10:08:36.207Z,24.54
2023-05-21T10:11:03.764Z,24.76
2023-05-21T10:13:33.583Z,25.17
2023-05-21T10:16:01.749Z,25.65
2023-05-21T10:18:28.405Z,25.72
2023-05-21T10:20:54.786Z,25.61
2023-05-21T10:23:21.299Z,25.85
2023-05-21T10:25:47.852Z,26.02
2023-05-21T10:28:36.606Z,26.03
2023-05-21T10:31:04.857Z,26.25
2023-05-21T10:33:31.353Z,25.97
2023-05-21T10:36:00.155Z,26.16
2023-05-21T10:38:26.601Z,26.50
2023-05-21T10:40:52.978Z,26.49
2023-05-21T10:43:27.744Z,26.65
2023-05-21T10:45:59.810Z,26.47
2023-05-21T10:48:26.205Z,26.57
2023-05-21T10:51:23.581Z,26.49
2023-05-21T10:53:58.877Z,26.09
2023-05-21T10:56:25.348Z,25.95
2023-05-21T10:58:57.698Z,26.09
2023-05-21T11:01:26.460Z,26.03
2023-05-21T11:03:52.908Z,26.50
2023-05-21T11:06:22.978Z,26.48
2023-05-21T11:08:49.968Z,26.48
2023-05-21T11:11:38.032Z,26.45
2023-05-21T11:14:07.328Z,26.60
2023-05-21T11:16:33.790Z,26.41
2023-05-21T11:19:00.406Z,25.99
2023-05-21T11:21:30.716Z,25.92
2023-05-21T11:24:01.061Z,26.03
2023-05-21T11:26:29.731Z,26.22
2023-05-21T11:29:05.234Z,25.99
2023-05-21T11:31:55.120Z,25.89
2023-05-21T11:37:46.044Z,25.43
2023-05-21T11:40:22.386Z,25.70
2023-05-21T11:42:49.314Z,25.47
2023-05-21T11:45:24.256Z,25.59
2023-05-21T11:47:51.838Z,25.59
2023-05-21T11:50:35.035Z,25.97
2023-05-21T11:53:03.028Z,25.98
2023-05-21T11:55:29.465Z,25.59
2023-05-21T11:57:56.451Z,25.71
2023-05-21T12:00:23.161Z,25.61
2023-05-21T12:02:52.684Z,25.40
2023-05-21T12:05:19.782Z,25.57
2023-05-21T12:07:46.703Z,25.81
2023-05-21T12:10:13.549Z,26.01
2023-05-21T12:12:53.807Z,26.06
2023-05-21T12:15:22.806Z,25.91
2023-05-21T12:17:49.747Z,25.92
2023-05-21T12:20:16.491Z,25.85
2023-05-21T12:22:43.531Z,25.96
2023-05-21T12:25:10.676Z,25.88
2023-05-21T12:27:37.103Z,26.11
2023-05-21T12:30:04.026Z,26.13
2023-05-21T12:32:30.786Z,26.22
2023-05-21T12:34:57.311Z,26.24
2023-05-21T12:37:25.401Z,26.10
2023-05-21T12:39:55.537Z,26.13
2023-05-21T12:42:26.316Z,26.19
2023-05-21T12:44:52.986Z,25.87
2023-05-21T12:47:19.495Z,26.05
2023-05-21T12:49:48.131Z,25.83
2023-05-21T12:52:15.055Z,26.19
2023-05-21T12:54:44.130Z,26.26
2023-05-21T12:57:12.050Z,26.43
2023-05-21T12:59:57.594Z,26.50
2023-05-21T13:02:24.110Z,26.62
2023-05-21T13:05:00.010Z,26.44
2023-05-21T13:07:26.842Z,26.41
2023-05-21T13:09:53.638Z,26.45
2023-05-21T13:12:23.719Z,26.29
2023-05-21T13:14:50.938Z,26.06
2023-05-21T13:17:17.730Z,26.16
2023-05-21T13:19:53.471Z,26.19
2023-05-21T13:22:19.880Z,26.30
2023-05-21T13:24:46.288Z,26.32
2023-05-21T13:27:12.714Z,26.40
2023-05-21T13:29:39.102Z,26.21
2023-05-21T13:32:05.777Z,26.16
2023-05-21T13:34:32.755Z,25.93
2023-05-21T13:36:59.161Z,25.78
2023-05-21T13:39:27.625Z,25.55
2023-05-21T13:41:54.300Z,25.58
2023-05-21T13:44:20.668Z,25.51
2023-05-21T13:46:47.107Z,25.45
2023-05-21T13:49:13.535Z,25.71
2023-05-21T13:51:39.891Z,25.56
2023-05-21T13:54:06.366Z,25.54
2023-05-21T13:56:33.873Z,25.50
2023-05-21T13:59:01.348Z,25.24
2023-05-21T14:01:27.835Z,25.25
2023-05-21T14:03:54.328Z,25.35
2023-05-21T14:06:21.753Z,25.46
2023-05-21T14:08:48.351Z,25.36
2023-05-21T14:11:14.771Z,25.55
2023-05-21T14:13:41.363Z,25.46
2023-05-21T14:16:07.983Z,25.52
2023-05-21T14:18:34.437Z,25.40
2023-05-21T14:21:00.935Z,25.25
2023-05-21T14:23:27.300Z,25.20
2023-05-21T14:25:53.729Z,25.27
2023-05-21T14:28:20.124Z,25.17
2023-05-21T14:30:46.503Z,25.01
2023-05-21T14:33:13.364Z,24.74
2023-05-21T14:35:41.403Z,24.68
2023-05-21T14:38:07.843Z,24.53
2023-05-21T14:40:34.284Z,24.64
2023-05-21T14:43:00.745Z,24.58
2023-05-21T14:45:27.156Z,24.67
2023-05-21T14:47:53.580Z,24.54
2023-05-21T14:50:20.005Z,24.32
2023-05-21T14:52:46.456Z,24.47
2023-05-21T14:55:13.827Z,24.47
2023-05-21T14:57:40.342Z,24.57
2023-05-21T15:00:07.049Z,24.47
2023-05-21T15:02:33.610Z,24.55
2023-05-21T15:05:00.157Z,24.50
2023-05-21T15:07:26.627Z,24.28
2023-05-21T15:09:53.079Z,24.27
2023-05-21T15:12:19.531Z,24.07
2023-05-21T15:14:46.071Z,23.94
2023-05-21T15:17:12.462Z,23.85
2023-05-21T15:19:40.614Z,23.99
2023-05-21T15:22:07.156Z,23.81
2023-05-21T15:24:33.632Z,23.73
2023-05-21T15:27:00.003Z,23.70
2023-05-21T15:29:26.562Z,23.67
2023-05-21T15:31:53.028Z,23.74
2023-05-21T15:34:19.490Z,23.74
2023-05-21T15:36:46.111Z,23.75
2023-05-21T15:39:12.542Z,23.60
2023-05-21T15:41:38.961Z,23.58
2023-05-21T15:44:05.531Z,23.43
2023-05-21T15:48:58.352Z,23.04
2023-05-21T15:51:24.903Z,23.08
2023-05-21T15:53:51.320Z,22.97
2023-05-21T15:56:17.748Z,22.87
2023-05-21T15:58:44.193Z,22.90
2023-05-21T16:01:10.709Z,22.66
2023-05-21T16:03:37.200Z,22.52
2023-05-21T16:06:04.386Z,22.49
2023-05-21T16:08:30.975Z,22.34
2023-05-21T16:10:57.375Z,22.25
2023-05-21T16:13:23.760Z,22.28
2023-05-21T16:15:50.177Z,22.35
2023-05-21T16:18:16.561Z,22.30
2023-05-21T16:20:42.997Z,22.26
2023-05-21T16:23:09.479Z,22.20
2023-05-21T16:25:36.304Z,22.09
2023-05-21T16:28:03.126Z,21.90
2023-05-21T16:30:29.616Z,21.78
2023-05-21T16:32:56.090Z,21.80
2023-05-21T16:35:22.673Z,21.70
2023-05-21T16:37:49.147Z,21.62
2023-05-21T16:40:15.658Z,21.70
2023-05-21T16:42:42.036Z,21.75
2023-05-21T16:45:08.639Z,21.80
2023-05-21T16:47:35.068Z,21.78
2023-05-21T16:50:01.902Z,21.83
2023-05-21T16:52:28.809Z,21.82
2023-05-21T16:54:55.265Z,21.95
2023-05-21T16:57:21.669Z,21.87
2023-05-21T16:59:48.161Z,21.91
2023-05-21T17:02:14.619Z,21.88
2023-05-21T17:04:41.081Z,21.86
2023-05-21T17:07:07.683Z,21.81
2023-05-21T17:09:34.119Z,21.75
2023-05-21T17:12:00.613Z,21.78
2023-05-21T17:14:34.515Z,21.78
2023-05-21T17:17:01.329Z,21.80
2023-05-21T17:19:27.736Z,21.75
2023-05-21T17:21:54.758Z,21.58
2023-05-21T17:24:21.177Z,21.58
2023-05-21T17:26:47.565Z,21.48
2023-05-21T17:29:14.087Z,21.35
2023-05-21T17:31:40.605Z,21.19
2023-05-21T17:34:07.119Z,21.17
2023-05-21T17:36:35.169Z,21.03
2023-05-21T17:39:02.252Z,20.87
2023-05-21T17:41:28.675Z,20.71
2023-05-21T17:43:55.109Z,20.55
2023-05-21T17:46:22.030Z,20.43
2023-05-21T17:48:48.454Z,20.32
2023-05-21T17:51:14.857Z,20.08
2023-05-21T17:53:41.421Z,19.92
2023-05-21T17:56:07.967Z,19.74
2023-05-21T17:58:34.650Z,19.75
2023-05-21T18:01:01.057Z,19.68
2023-05-21T18:03:27.705Z,19.54
2023-05-21T18:05:54.126Z,19.36
2023-05-21T18:08:20.580Z,19.29
2023-05-21T18:10:48.005Z,19.19
2023-05-21T18:13:14.658Z,19.03
2023-05-21T18:15:43.666Z,19.00
2023-05-21T18:18:10.159Z,18.78
2023-05-21T18:20:36.971Z,18.75
2023-05-21T18:23:03.539Z,18.71
2023-05-21T18:25:29.926Z,18.57
2023-05-21T18:27:56.498Z,18.45
2023-05-21T18:30:22.892Z,18.34
2023-05-21T18:32:50.627Z,18.32
2023-05-21T18:35:17.408Z,18.25
2023-05-21T18:37:44.598Z,18.10
2023-05-21T18:40:11.909Z,18.14
2023-05-21T18:42:38.462Z,18.01
2023-05-21T18:45:08.606Z,17.92
2023-05-21T18:47:35.109Z,17.67
2023-05-21T18:50:01.557Z,17.43
2023-05-21T18:52:27.961Z,17.45
2023-05-21T18:54:54.536Z,17.46
2023-05-21T18:57:20.979Z,17.34
2023-05-21T18:59:47.394Z,17.22
2023-05-21T19:02:16.001Z,17.21
2023-05-21T19:04:42.626Z,17.08
2023-05-21T19:07:09.157Z,16.96
2023-05-21T19:09:35.585Z,16.86
2023-05-21T19:12:02.128Z,16.72
2023-05-21T19:14:28.562Z,16.69
2023-05-21T19:16:55.831Z,16.62
2023-05-21T19:19:22.297Z,16.54
2023-05-21T19:21:48.753Z,16.48
2023-05-21T19:24:15.154Z,16.43
2023-05-21T19:26:41.602Z,16.34
2023-05-21T19:29:09.460Z,16.31
2023-05-21T19:31:37.185Z,16.27
2023-05-21T19:34:10.264Z,16.18
2023-05-21T19:36:51.652Z,16.14
2023-05-21T19:39:19.773Z,16.12
2023-05-21T19:41:48.486Z,16.16
2023-05-21T19:44:15.006Z,16.15
2023-05-21T19:46:41.510Z,16.15
2023-05-21T19:49:10.434Z,16.24
2023-05-21T19:51:38.572Z,16.19
2023-05-21T19:54:05.725Z,16.10
2023-05-21T19:56:32.149Z,16.14
2023-05-21T19:59:00.846Z,16.13
2023-05-21T20:01:29.067Z,16.10
2023-05-21T20:03:55.773Z,16.08
2023-05-21T20:06:22.451Z,16.01
2023-05-21T20:08:49.164Z,16.01
2023-05-21T20:11:15.809Z,15.93
2023-05-21T20:13:42.520Z,15.98
2023-05-21T20:16:10.345Z,15.89
2023-05-21T20:18:37.188Z,15.90
2023-05-21T20:21:06.306Z,15.97
2023-05-21T20:23:32.879Z,15.98
2023-05-21T20:25:59.407Z,15.94
2023-05-21T20:28:27.165Z,15.94
2023-05-21T20:30:58.054Z,15.88
2023-05-21T20:33:27.190Z,15.83
2023-05-21T20:35:53.632Z,15.79
2023-05-21T20:38:21.065Z,15.76
2023-05-21T20:40:47.638Z,15.72
2023-05-21T20:43:14.932Z,15.71
2023-05-21T20:45:42.223Z,15.71
2023-05-21T20:48:09.786Z,15.61
2023-05-21T20:50:38.061Z,15.59
2023-05-21T20:53:04.933Z,15.55
2023-05-21T20:55:35.511Z,15.62
2023-05-21T20:58:03.607Z,15.59
2023-05-21T21:00:32.032Z,15.53
2023-05-21T21:03:01.071Z,15.53
2023-05-21T21:05:28.288Z,15.49
2023-05-21T21:07:55.954Z,15.45
2023-05-21T21:10:22.623Z,15.48
2023-05-21T21:12:49.072Z,15.41
2023-05-21T21:15:15.523Z,15.38
2023-05-21T21:17:42.346Z,15.36
2023-05-21T21:20:09.668Z,15.35
2023-05-21T21:22:36.191Z,15.32
2023-05-21T21:25:02.632Z,15.24
2023-05-21T21:27:29.159Z,15.18
2023-05-21T21:29:55.661Z,15.12
2023-05-21T21:32:22.258Z,15.07
2023-05-21T21:34:49.090Z,15.10
2023-05-21T21:37:16.358Z,15.12
2023-05-21T21:39:42.985Z,15.13
2023-05-21T21:42:10.573Z,15.09
2023-05-21T21:44:39.196Z,15.08
2023-05-21T21:47:05.766Z,15.10
2023-05-21T21:49:32.349Z,15.08
2023-05-21T21:51:58.763Z,15.04
2023-05-21T21:54:25.173Z,15.04
2023-05-21T21:56:51.546Z,15.01
2023-05-21T21:59:17.991Z,14.96
2023-05-21T22:01:44.753Z,14.88
2023-05-21T22:04:11.423Z,14.87
2023-05-21T22:06:39.102Z,14.79
2023-05-21T22:09:06.305Z,14.74
2023-05-21T22:11:32.805Z,14.69
2023-05-21T22:14:00.412Z,14.65
2023-05-21T22:16:28.040Z,14.60
2023-05-21T22:18:54.628Z,14.53
2023-05-21T22:21:21.499Z,14.50
2023-05-21T22:23:47.902Z,14.43
2023-05-21T22:26:14.270Z,14.39
2023-05-21T22:28:40.936Z,14.32
2023-05-21T22:31:07.444Z,14.26
2023-05-21T22:33:33.869Z,14.24
2023-05-21T22:36:00.480Z,14.26
2023-05-21T22:38:26.931Z,14.24
2023-05-21T22:40:53.374Z,14.10
2023-05-21T22:43:19.859Z,14.01
2023-05-21T22:45:46.361Z,13.97
2023-05-21T22:48:14.226Z,13.93
2023-05-21T22:50:41.021Z,13.90
2023-05-21T22:53:07.619Z,13.79
2023-05-21T22:55:33.991Z,13.68
2023-05-21T22:58:00.522Z,13.67
2023-05-21T23:00:27.184Z,13.59
2023-05-21T23:02:54.734Z,13.51
2023-05-21T23:05:21.535Z,13.50
2023-05-21T23:07:47.984Z,13.50
2023-05-21T23:10:14.451Z,13.53
2023-05-21T23:12:41.339Z,13.45
2023-05-21T23:15:10.354Z,13.40
2023-05-21T23:17:37.229Z,13.36
2023-05-21T23:20:03.825Z,13.39
2023-05-21T23:22:30.365Z,13.36
2023-05-21T23:24:56.778Z,13.38
2023-05-21T23:27:23.227Z,13.43
2023-05-21T23:29:49.629Z,13.42
2023-05-21T23:32:16.015Z,13.43
2023-05-21T23:34:42.880Z,13.37
2023-05-21T23:37:09.268Z,13.38
2023-05-21T23:39:36.663Z,13.36
2023-05-21T23:42:03.134Z,13.28
2023-05-21T23:44:29.570Z,13.18
2023-05-21T23:46:55.989Z,13.13
2023-05-21T23:49:22.437Z,13.05
2023-05-21T23:51:50.887Z,13.04
2023-05-21T23:54:17.451Z,13.05
2023-05-21T23:56:43.915Z,13.01
2023-05-21T23:59:10.627Z,13.04
